Time;durP1;ratioP1;P1;durP2;ratioP2;P2;SDS_P1;SDS_P2;PMS_P1;PMS_P2;Temp;Humidity;BMP_temperature;BMP_pressure;BME280_temperature;BME280_humidity;BME280_pressure;Samples;Min_cycle;Max_cycle;Signal;HPM_P1;HPM_P2
2023/10/15 00:00:17;;;;;;;5.28;1.63;;;18.40;92.40;;;;;;5046716;28;20041;-65
2023/10/15 00:02:45;;;;;;;4.28;1.63;;;18.40;92.40;;;;;;5041440;28;20494;-65
2023/10/15 00:05:20;;;;;;;6.45;2.17;;;18.50;90.60;;;;;;5048136;28;20494;-65
2023/10/15 00:07:47;;;;;;;5.88;1.77;;;18.40;92.00;;;;;;5047400;28;20390;-65
2023/10/15 00:10:14;;;;;;;6.32;1.90;;;18.40;92.10;;;;;;5033190;28;20095;-65
2023/10/15 00:12:44;;;;;;;5.95;1.75;;;18.30;92.30;;;;;;5049362;28;20049;-65
2023/10/15 00:15:28;;;;;;;5.90;2.20;;;18.60;90.80;;;;;;5048390;28;20128;-64
2023/10/15 00:18:02;;;;;;;7.82;1.92;;;18.40;91.20;;;;;;5057410;28;20052;-65
2023/10/15 00:20:31;;;;;;;5.88;1.63;;;;;;;;;;5034794;28;20396;-65
2023/10/15 00:22:58;;;;;;;6.10;1.83;;;;;;;;;;5044552;28;20090;-65
2023/10/15 00:25:24;;;;;;;5.57;1.90;;;;;;;;;;5031375;28;20052;-64
2023/10/15 00:27:57;;;;;;;4.55;1.63;;;;;;;;;;5034721;28;20041;-65
2023/10/15 00:30:23;;;;;;;;;;;18.30;90.40;;;;;;5041040;28;20071;-65
2023/10/15 00:32:49;;;;;;;6.40;1.67;;;18.50;91.90;;;;;;5036453;28;19921;-65
2023/10/15 00:35:19;;;;;;;5.88;1.70;;;18.40;92.20;;;;;;5033240;28;20056;-65
2023/10/15 00:37:55;;;;;;;4.85;1.63;;;;;;;;;;5062124;28;20049;-64
2023/10/15 00:40:21;;;;;;;4.20;1.55;;;18.30;92.10;;;;;;5039375;28;20041;-65
2023/10/15 00:42:47;;;;;;;5.57;1.52;;;;;;;;;;5050975;28;20044;-64
2023/10/15 00:45:14;;;;;;;6.32;1.70;;;18.10;92.00;;;;;;5051232;28;20091;-65
2023/10/15 00:47:52;;;;;;;5.28;1.70;;;18.30;91.20;;;;;;5048784;28;20056;-65
2023/10/15 00:50:18;;;;;;;5.60;1.60;;;18.20;90.70;;;;;;5029989;28;20056;-64
2023/10/15 00:52:44;;;;;;;5.00;1.65;;;;;;;;;;5031482;28;20115;-65
2023/10/15 00:55:16;;;;;;;5.30;1.63;;;18.40;92.00;;;;;;5035520;28;20087;-66
2023/10/15 00:57:46;;;;;;;6.35;1.60;;;18.20;91.90;;;;;;5028423;28;20060;-64
2023/10/15 01:02:58;;;;;;;4.93;1.50;;;;;;;;;;5030825;28;20053;-65
2023/10/15 01:05:25;;;;;;;4.15;1.40;;;18.30;90.80;;;;;;5045354;28;20045;-64
2023/10/15 01:07:54;;;;;;;5.60;1.48;;;18.10;90.10;;;;;;5021576;28;20044;-64
2023/10/15 01:10:36;;;;;;;3.53;1.15;;;18.20;91.90;;;;;;5044202;28;20127;-65
2023/10/15 01:13:17;;;;;;;5.18;1.40;;;18.30;91.90;;;;;;5031955;28;20059;-64
2023/10/15 01:15:46;;;;;;;6.97;1.40;;;;;;;;;;5027763;28;20056;-64
2023/10/15 01:18:12;;;;;;;4.70;1.50;;;18.20;91.90;;;;;;5063177;28;20111;-65
2023/10/15 01:20:45;;;;;;;4.50;1.63;;;;;;;;;;5048406;28;20092;-65
2023/10/15 01:26:23;;;;;;;4.90;1.45;;;18.20;91.80;;;;;;5070153;28;20057;-65
2023/10/15 01:28:52;;;;;;;5.43;1.73;;;18.30;90.00;;;;;;5065439;28;20056;-63
2023/10/15 01:31:18;;;;;;;4.00;1.38;;;18.20;91.80;;;;;;5050249;28;20045;-64
2023/10/15 01:33:49;;;;;;;5.00;1.40;;;;;;;;;;5067126;28;20047;-64
2023/10/15 01:36:21;;;;;;;4.55;1.63;;;18.20;91.80;;;;;;5049771;28;20061;-64
2023/10/15 01:38:56;;;;;;;5.70;1.50;;;18.10;91.80;;;;;;5049783;28;20077;-64
2023/10/15 01:41:25;;;;;;;5.50;1.50;;;;;;;;;;5056692;28;20482;-65
2023/10/15 01:43:56;;;;;;;5.63;1.42;;;18.10;91.80;;;;;;5064487;28;20613;-66
2023/10/15 01:49:07;;;;;;;4.63;1.30;;;;;;;;;;5055285;28;20169;-65
2023/10/15 01:51:39;;;;;;;5.20;1.60;;;18.10;91.40;;;;;;5068279;28;20053;-65
2023/10/15 01:54:13;;;;;;;4.30;1.30;;;18.00;91.70;;;;;;5068713;28;20048;-65
2023/10/15 01:56:45;;;;;;;4.57;1.50;;;18.00;90.80;;;;;;5048255;28;20087;-65
2023/10/15 01:59:11;;;;;;;5.68;1.77;;;17.90;90.10;;;;;;5069807;28;20461;-65
2023/10/15 02:01:40;;;;;;;3.97;1.20;;;18.20;91.70;;;;;;5064867;28;20449;-65
2023/10/15 02:04:12;;;;;;;4.70;1.60;;;;;;;;;;5033358;28;20053;-65
2023/10/15 02:06:43;;;;;;;4.30;1.40;;;18.20;90.60;;;;;;5029667;28;20103;-65
2023/10/15 02:09:12;;;;;;;5.65;1.48;;;18.10;90.60;;;;;;5019531;28;20049;-65
2023/10/15 02:11:47;;;;;;;5.13;1.70;;;18.00;91.70;;;;;;5038256;28;20224;-65
2023/10/15 02:14:20;;;;;;;4.95;1.50;;;;;;;;;;5049095;28;20053;-64
2023/10/15 02:16:49;;;;;;;7.13;1.58;;;18.00;91.70;;;;;;5042394;28;20407;-65
2023/10/15 02:19:28;;;;;;;4.80;1.40;;;17.90;90.50;;;;;;5038947;28;20051;-65
2023/10/15 02:21:56;;;;;;;4.38;1.15;;;;;;;;;;5045748;28;20061;-65
2023/10/15 02:24:23;;;;;;;7.47;1.50;;;;;;;;;;5053534;28;20041;-65
2023/10/15 02:26:49;;;;;;;5.68;1.77;;;18.00;91.60;;;;;;5037025;28;20045;-65
2023/10/15 02:32:07;;;;;;;4.93;1.60;;;18.00;91.60;;;;;;5035827;28;20054;-66
2023/10/15 02:34:40;;;;;;;5.95;1.70;;;18.00;91.60;;;;;;5046402;28;20413;-65
2023/10/15 02:37:10;;;;;;;5.10;1.30;;;17.90;91.50;;;;;;5053818;28;20124;-64
2023/10/15 02:39:39;;;;;;;5.10;1.55;;;;;;;;;;5051071;28;20044;-65
2023/10/15 02:42:05;;;;;;;4.72;1.60;;;;;;;;;;5052142;28;20052;-65
2023/10/15 02:44:34;;;;;;;3.65;1.10;;;18.10;91.50;;;;;;5021620;28;20045;-65
2023/10/15 02:49:52;;;;;;;4.68;1.40;;;17.90;91.40;;;;;;5052177;28;20124;-64
2023/10/15 02:52:19;;;;;;;4.32;1.40;;;17.90;91.20;;;;;;5019527;28;20088;-65
2023/10/15 02:54:46;;;;;;;4.53;1.42;;;17.90;91.50;;;;;;5051634;28;20037;-63
2023/10/15 02:57:15;;;;;;;3.97;1.63;;;17.90;91.50;;;;;;5036856;28;20497;-64
2023/10/15 02:59:52;;;;;;;5.22;1.48;;;17.80;91.50;;;;;;5033060;28;20368;-65
2023/10/15 03:02:21;;;;;;;5.43;1.58;;;17.80;90.40;;;;;;5047089;28;20045;-65
2023/10/15 03:04:55;;;;;;;4.50;1.55;;;;;;;;;;5046908;28;20041;-65
2023/10/15 03:07:31;;;;;;;4.22;1.30;;;17.90;90.70;;;;;;5035380;28;20045;-65
2023/10/15 03:09:57;;;;;;;3.75;1.30;;;18.10;91.50;;;;;;5044279;28;20041;-64
2023/10/15 03:12:24;;;;;;;4.50;1.35;;;17.90;91.50;;;;;;5053404;28;20072;-65
2023/10/15 03:14:51;;;;;;;3.75;1.17;;;17.90;91.50;;;;;;5041615;28;20049;-65
2023/10/15 03:17:29;;;;;;;4.90;1.42;;;17.90;91.50;;;;;;5045488;28;20106;-64
2023/10/15 03:19:56;;;;;;;4.75;1.48;;;18.00;91.50;;;;;;5010815;28;20049;-64
2023/10/15 03:22:24;;;;;;;5.35;1.30;;;18.00;91.60;;;;;;5047329;28;20064;-64
2023/10/15 03:24:53;;;;;;;4.25;1.35;;;18.00;90.40;;;;;;5034828;28;20045;-65
2023/10/15 03:27:23;;;;;;;3.47;1.15;;;17.90;91.50;;;;;;5039792;28;20084;-64
2023/10/15 03:29:51;;;;;;;2.53;0.90;;;17.90;91.50;;;;;;5053337;28;20462;-65
2023/10/15 03:32:17;;;;;;;5.47;1.45;;;;;;;;;;5051494;28;20056;-64
2023/10/15 03:34:47;;;;;;;3.67;1.10;;;;;;;;;;5051370;28;20041;-64
2023/10/15 03:37:14;;;;;;;5.60;1.38;;;;;;;;;;5033237;28;20510;-64
2023/10/15 03:42:09;;;;;;;5.10;1.25;;;17.90;91.50;;;;;;5036594;28;20128;-64
2023/10/15 03:44:47;;;;;;;5.07;1.23;;;17.90;89.30;;;;;;5044195;28;20502;-64
2023/10/15 03:47:16;;;;;;;4.20;1.20;;;;;;;;;;5037491;28;20057;-64
2023/10/15 03:49:51;;;;;;;2.63;0.93;;;;;;;;;;5032283;28;20045;-64
2023/10/15 03:52:20;;;;;;;3.25;1.10;;;17.90;91.50;;;;;;5033749;28;20376;-65
2023/10/15 03:54:52;;;;;;;4.60;1.42;;;17.90;91.50;;;;;;5039947;28;20509;-65
2023/10/15 03:57:18;;;;;;;3.70;1.10;;;17.80;91.50;;;;;;5052921;28;20092;-65
2023/10/15 03:59:46;;;;;;;4.38;1.25;;;;;;;;;;5020953;28;20049;-65
2023/10/15 04:02:22;;;;;;;5.88;1.50;;;;;;;;;;5028866;28;20042;-65
2023/10/15 04:05:00;;;;;;;5.32;1.30;;;;;;;;;;5036813;28;20043;-66
2023/10/15 04:07:26;;;;;;;4.05;1.23;;;;;;;;;;5051113;28;20061;-65
2023/10/15 04:09:53;;;;;;;4.65;1.25;;;;;;;;;;5048053;28;20073;-64
2023/10/15 04:12:19;;;;;;;5.10;1.35;;;;;;;;;;5031847;28;20513;-64
2023/10/15 04:14:46;;;;;;;5.05;1.45;;;17.80;90.80;;;;;;5041634;28;20055;-65
2023/10/15 04:17:13;;;;;;;3.78;1.20;;;18.00;91.30;;;;;;5042217;28;20057;-65
2023/10/15 04:19:39;;;;;;;5.05;1.27;;;;;;;;;;5036912;28;20064;-66
2023/10/15 04:22:14;;;;;;;4.22;1.45;;;;;;;;;;5036813;28;20059;-66
2023/10/15 04:24:46;;;;;;;4.22;1.30;;;17.90;91.50;;;;;;5044562;28;20055;-64
2023/10/15 04:27:15;;;;;;;4.75;1.50;;;;;;;;;;5038157;28;20060;-64
2023/10/15 04:29:56;;;;;;;5.65;1.63;;;17.80;90.30;;;;;;5020403;28;20478;-65
2023/10/15 04:34:53;;;;;;;3.60;1.27;;;17.80;91.50;;;;;;5030879;28;20056;-64
2023/10/15 04:37:20;;;;;;;4.72;1.40;;;17.80;91.50;;;;;;5035047;28;20546;-64
2023/10/15 04:39:55;;;;;;;4.30;1.20;;;17.80;90.40;;;;;;5046675;28;20033;-65
2023/10/15 04:42:21;;;;;;;3.53;1.30;;;;;;;;;;5039757;28;20052;-65
2023/10/15 04:44:50;;;;;;;2.97;1.10;;;17.90;90.40;;;;;;5044270;28;20110;-64
2023/10/15 04:47:23;;;;;;;3.03;0.93;;;17.50;90.30;;;;;;5052081;28;20067;-64
2023/10/15 04:49:56;;;;;;;4.03;1.10;;;17.80;91.50;;;;;;5034312;28;20052;-65
2023/10/15 04:52:22;;;;;;;5.03;1.80;;;17.80;91.40;;;;;;5032993;28;20045;-64
2023/10/15 04:54:48;;;;;;;4.55;1.20;;;;;;;;;;5029712;28;20056;-65
2023/10/15 04:57:14;;;;;;;3.60;1.00;;;;;;;;;;5029064;28;20502;-64
2023/10/15 04:59:41;;;;;;;5.28;1.30;;;17.60;91.40;;;;;;5016270;28;20479;-65
2023/10/15 05:02:08;;;;;;;3.10;1.20;;;17.90;90.40;;;;;;5048660;28;20110;-64
2023/10/15 05:04:34;;;;;;;4.07;1.38;;;;;;;;;;5049257;28;20139;-64
2023/10/15 05:07:00;;;;;;;3.30;1.10;;;;;;;;;;5033040;28;20041;-65
2023/10/15 05:09:31;;;;;;;3.53;0.90;;;;;;;;;;5034309;28;20127;-64
2023/10/15 05:11:58;;;;;;;5.30;1.30;;;17.80;91.50;;;;;;5032194;28;20395;-64
2023/10/15 05:14:24;;;;;;;3.67;1.00;;;;;;;;;;5034121;28;20123;-65
2023/10/15 05:16:50;;;;;;;3.38;1.00;;;;;;;;;;5025527;28;20057;-64
2023/10/15 05:19:17;;;;;;;4.53;1.17;;;;;;;;;;5050897;28;20414;-64
2023/10/15 05:21:46;;;;;;;4.40;0.88;;;17.50;90.30;;;;;;5050461;28;20076;-64
2023/10/15 05:24:21;;;;;;;3.17;0.95;;;17.80;91.60;;;;;;5031048;28;20403;-64
2023/10/15 05:26:47;;;;;;;4.63;1.50;;;;;;;;;;5030634;28;20459;-64
2023/10/15 05:29:14;;;;;;;3.22;1.13;;;17.70;90.40;;;;;;5032161;28;20049;-65
2023/10/15 05:31:41;;;;;;;2.83;0.93;;;;;;;;;;5030672;28;20045;-64
2023/10/15 05:34:07;;;;;;;4.18;1.20;;;17.40;90.10;;;;;;5050682;28;20045;-64
2023/10/15 05:36:34;;;;;;;4.35;1.30;;;;;;;;;;5066495;28;20044;-65
2023/10/15 05:39:00;;;;;;;2.70;1.05;;;;;;;;;;5034059;28;20132;-64
2023/10/15 05:41:31;;;;;;;3.83;1.23;;;;;;;;;;5039925;28;20053;-64
2023/10/15 05:43:57;;;;;;;3.60;0.98;;;;;;;;;;5036770;28;20046;-64
2023/10/15 05:46:24;;;;;;;4.65;1.10;;;;;;;;;;5050610;28;20089;-64
2023/10/15 05:48:50;;;;;;;2.85;0.90;;;;;;;;;;5035996;28;20123;-63
2023/10/15 05:51:16;;;;;;;4.95;1.17;;;17.40;91.30;;;;;;5034954;28;20414;-64
2023/10/15 05:53:42;;;;;;;3.83;1.05;;;;;;;;;;5035948;28;20053;-64
2023/10/15 05:56:08;;;;;;;2.85;0.90;;;17.70;91.60;;;;;;5041028;28;20384;-64
2023/10/15 05:58:35;;;;;;;1.70;0.65;;;17.50;91.50;;;;;;5047656;28;20056;-64
2023/10/15 06:01:03;;;;;;;2.25;0.77;;;;;;;;;;5048978;28;20057;-64
2023/10/15 06:03:29;;;;;;;3.00;0.82;;;17.50;90.00;;;;;;5035211;28;20171;-63
2023/10/15 06:05:58;;;;;;;3.67;0.88;;;17.60;91.60;;;;;;5035824;28;20687;-64
2023/10/15 06:08:24;;;;;;;2.45;0.90;;;17.50;91.60;;;;;;5044681;28;20045;-64
2023/10/15 06:10:50;;;;;;;3.05;0.90;;;17.60;91.60;;;;;;5035627;28;20088;-64
2023/10/15 06:13:17;;;;;;;5.05;1.40;;;;;;;;;;5041248;28;20061;-64
2023/10/15 06:15:42;;;;;;;2.78;1.00;;;17.40;90.90;;;;;;5040421;28;20044;-64
2023/10/15 06:18:11;;;;;;;2.65;0.88;;;17.30;91.50;;;;;;5039922;28;20050;-64
2023/10/15 06:20:37;;;;;;;4.00;1.10;;;17.50;91.60;;;;;;5050743;28;20435;-64
2023/10/15 06:23:07;;;;;;;3.40;0.82;;;17.60;91.60;;;;;;5020109;28;20056;-64
2023/10/15 06:25:35;;;;;;;2.40;0.80;;;17.70;91.70;;;;;;5035606;28;20042;-64
2023/10/15 06:28:02;;;;;;;3.15;0.90;;;17.50;90.10;;;;;;5048341;28;20077;-64
2023/10/15 06:30:28;;;;;;;3.75;1.00;;;;;;;;;;5042875;28;20064;-64
2023/10/15 06:32:54;;;;;;;3.47;1.10;;;17.60;90.80;;;;;;5033928;28;20056;-64
2023/10/15 06:35:21;;;;;;;3.92;1.02;;;17.50;91.60;;;;;;5042295;28;20041;-64
2023/10/15 06:37:47;;;;;;;3.80;1.10;;;;;;;;;;5049444;28;20117;-64
2023/10/15 06:40:15;;;;;;;3.88;1.15;;;17.60;91.50;;;;;;5064029;28;20044;-64
2023/10/15 06:42:44;;;;;;;3.80;1.15;;;17.50;91.60;;;;;;5023554;28;20048;-65
2023/10/15 06:45:10;;;;;;;3.03;0.90;;;17.50;90.20;;;;;;5034557;28;20041;-63
2023/10/15 06:47:37;;;;;;;3.58;0.90;;;17.50;91.50;;;;;;5033563;28;20049;-64
2023/10/15 06:50:08;;;;;;;2.58;1.00;;;;;;;;;;5023070;28;20402;-64
2023/10/15 06:52:39;;;;;;;3.50;0.98;;;17.70;90.40;;;;;;5033591;28;20057;-62
2023/10/15 06:55:05;;;;;;;4.10;1.13;;;17.60;91.50;;;;;;5033549;28;20139;-63
2023/10/15 06:57:32;;;;;;;4.32;1.15;;;17.40;91.50;;;;;;5035096;28;20053;-64
2023/10/15 06:59:58;;;;;;;2.28;0.93;;;;;;;;;;5034740;28;20096;-63
2023/10/15 07:02:28;;;;;;;3.33;1.08;;;17.60;91.50;;;;;;5032420;28;20045;-63
2023/10/15 07:05:00;;;;;;;4.10;0.98;;;17.50;91.50;;;;;;5050692;28;20045;-63
2023/10/15 07:07:26;;;;;;;3.25;0.98;;;17.70;91.10;;;;;;5037307;28;20483;-64
2023/10/15 07:09:52;;;;;;;2.92;0.98;;;;;;;;;;5043429;28;20029;-64
2023/10/15 07:12:20;;;;;;;2.90;0.93;;;17.60;90.10;;;;;;5038229;28;20053;-64
2023/10/15 07:14:47;;;;;;;2.97;1.30;;;17.50;91.50;;;;;;5050205;28;20053;-64
2023/10/15 07:17:13;;;;;;;3.80;1.00;;;;;;;;;;5040131;28;20056;-66
2023/10/15 07:19:40;;;;;;;2.85;0.98;;;;;;;;;;5046294;28;20048;-65
2023/10/15 07:22:06;;;;;;;3.60;0.80;;;17.50;91.50;;;;;;5043396;28;20068;-65
2023/10/15 07:24:33;;;;;;;3.67;0.93;;;17.60;91.40;;;;;;5033184;28;20118;-65
2023/10/15 07:27:01;;;;;;;2.50;1.17;;;17.50;91.50;;;;;;5033810;28;20511;-65
2023/10/15 07:29:28;;;;;;;2.97;0.88;;;17.60;91.50;;;;;;5047631;28;20052;-64
2023/10/15 07:31:54;;;;;;;1.77;0.68;;;17.80;91.60;;;;;;5040637;28;20179;-64
2023/10/15 07:34:22;;;;;;;3.33;1.15;;;17.90;90.90;;;;;;5033948;28;20049;-64
2023/10/15 07:36:51;;;;;;;3.45;0.90;;;17.90;91.50;;;;;;5034057;28;20045;-65
2023/10/15 07:39:17;;;;;;;2.75;0.88;;;17.90;91.40;;;;;;5042097;28;20087;-64
2023/10/15 07:41:45;;;;;;;2.25;0.90;;;18.20;90.10;;;;;;5016808;28;20049;-65
2023/10/15 07:44:13;;;;;;;2.58;1.00;;;18.40;91.40;;;;;;5036924;28;20410;-64
2023/10/15 07:46:39;;;;;;;2.72;0.80;;;18.20;91.30;;;;;;5034807;28;20041;-64
2023/10/15 07:49:06;;;;;;;3.63;0.90;;;;;;;;;;5047174;28;20045;-70
2023/10/15 07:51:32;;;;;;;3.47;0.85;;;18.40;91.10;;;;;;5047119;28;20068;-63
2023/10/15 07:53:58;;;;;;;2.70;0.90;;;18.40;91.00;;;;;;5047076;28;20045;-66
2023/10/15 07:56:24;;;;;;;3.00;1.10;;;;;;;;;;5049474;28;20041;-66
2023/10/15 07:58:51;;;;;;;2.88;1.10;;;;;;;;;;5032546;28;20053;-69
2023/10/15 08:01:17;;;;;;;3.67;1.20;;;18.50;90.30;;;;;;5031389;28;20059;-67
2023/10/15 08:03:43;;;;;;;3.28;1.15;;;18.40;90.90;;;;;;5031235;28;20071;-68
2023/10/15 08:06:09;;;;;;;6.05;1.40;;;18.70;90.90;;;;;;5041926;28;20037;-66
2023/10/15 08:08:35;;;;;;;3.60;1.20;;;;;;;;;;5050979;28;20044;-69
2023/10/15 08:11:03;;;;;;;2.92;0.93;;;;;;;;;;5051236;28;20135;-66
2023/10/15 08:13:29;;;;;;;3.53;1.00;;;18.60;90.70;;;;;;5029952;28;20383;-66
2023/10/15 08:15:55;;;;;;;6.80;1.30;;;;;;;;;;5046770;28;20119;-68
2023/10/15 08:18:21;;;;;;;3.30;1.00;;;;;;;;;;5032393;28;20552;-69
2023/10/15 08:20:48;;;;;;;3.30;1.00;;;;;;;;;;5041244;28;20131;-69
2023/10/15 08:23:14;;;;;;;3.20;1.17;;;;;;;;;;5046046;28;20052;-68
2023/10/15 08:25:40;;;;;;;2.35;0.90;;;18.70;90.60;;;;;;5052486;28;20037;-67
2023/10/15 08:28:07;;;;;;;2.70;0.88;;;18.60;90.40;;;;;;5049933;28;20540;-65
2023/10/15 08:30:33;;;;;;;4.25;1.23;;;;;;;;;;5041332;28;20192;-65
2023/10/15 08:32:58;;;;;;;3.97;1.10;;;18.70;90.20;;;;;;5030799;28;20060;-66
2023/10/15 08:35:24;;;;;;;6.40;1.45;;;18.70;90.40;;;;;;5031743;28;20061;-65
2023/10/15 08:37:50;;;;;;;4.88;1.50;;;18.80;90.50;;;;;;5031514;28;20514;-68
2023/10/15 08:40:17;;;;;;;4.85;1.30;;;18.70;90.60;;;;;;5040881;28;20122;-68
2023/10/15 08:42:55;;;;;;;4.88;1.23;;;18.60;88.90;;;;;;5037006;28;20139;-68
2023/10/15 08:45:23;;;;;;;3.80;1.45;;;18.60;89.00;;;;;;5032639;28;20045;-69
2023/10/15 08:47:50;;;;;;;4.45;1.40;;;18.50;90.60;;;;;;5027499;28;20080;-68
2023/10/15 08:50:22;;;;;;;4.60;1.40;;;18.50;90.70;;;;;;5014979;28;20130;-69
2023/10/15 08:52:49;;;;;;;4.20;1.20;;;18.40;90.70;;;;;;5018770;28;20079;-69
2023/10/15 08:55:15;;;;;;;4.30;1.40;;;18.50;90.70;;;;;;5030088;28;20128;-69
2023/10/15 08:57:41;;;;;;;3.58;1.15;;;18.30;90.70;;;;;;5027905;28;20429;-68
2023/10/15 09:00:25;;;;;;;4.70;1.40;;;18.40;90.80;;;;;;5048069;28;20095;-68
2023/10/15 09:03:00;;;;;;;5.03;1.67;;;18.50;90.80;;;;;;5031928;28;20498;-65
2023/10/15 09:05:33;;;;;;;4.03;1.20;;;18.30;90.80;;;;;;5021414;28;20045;-66
2023/10/15 09:08:06;;;;;;;4.47;1.20;;;18.60;89.70;;;;;;5031182;28;20054;-65
2023/10/15 09:10:34;;;;;;;3.70;1.30;;;18.60;90.60;;;;;;5015392;28;20053;-68
2023/10/15 09:13:00;;;;;;;4.60;1.20;;;;;;;;;;5030748;28;20061;-68
2023/10/15 09:15:29;;;;;;;3.80;1.40;;;18.60;91.40;;;;;;5050417;28;20134;-67
2023/10/15 09:17:59;;;;;;;3.15;1.40;;;18.60;91.40;;;;;;5050868;28;20049;-67
2023/10/15 09:20:28;;;;;;;3.90;1.35;;;18.60;90.90;;;;;;5034416;28;20118;-66
2023/10/15 09:22:58;;;;;;;5.60;1.33;;;18.70;91.50;;;;;;5018758;28;20357;-66
2023/10/15 09:25:24;;;;;;;4.72;1.50;;;18.70;91.40;;;;;;5043382;28;20053;-66
2023/10/15 09:27:53;;;;;;;6.40;1.35;;;18.70;90.40;;;;;;5045855;28;20053;-67
2023/10/15 09:30:26;;;;;;;5.97;1.63;;;18.70;91.40;;;;;;5031030;28;20446;-66
2023/10/15 09:32:52;;;;;;;3.05;1.20;;;18.70;91.40;;;;;;5031221;28;20395;-68
2023/10/15 09:35:18;;;;;;;3.65;1.40;;;18.70;91.40;;;;;;5043775;28;20041;-68
2023/10/15 09:37:44;;;;;;;4.18;1.20;;;18.70;91.30;;;;;;5032850;28;20119;-68
2023/10/15 09:42:55;;;;;;;4.70;1.42;;;;;;;;;;5048092;28;20509;-67
2023/10/15 09:45:24;;;;;;;7.53;1.70;;;18.90;91.30;;;;;;5030620;28;20053;-68
2023/10/15 09:48:00;;;;;;;19.30;2.80;;;19.00;90.20;;;;;;5044071;28;20058;-68
2023/10/15 09:50:31;;;;;;;22.90;3.55;;;18.90;90.00;;;;;;5030674;28;20049;-70
2023/10/15 09:53:01;;;;;;;30.30;4.00;;;19.10;89.60;;;;;;5048406;28;20495;-68
2023/10/15 09:55:28;;;;;;;33.38;4.05;;;18.90;90.00;;;;;;5039035;28;20120;-67
2023/10/15 09:57:55;;;;;;;30.35;3.55;;;19.00;91.20;;;;;;5030641;28;20057;-65
2023/10/15 10:00:32;;;;;;;25.48;3.70;;;17.90;89.70;;;;;;5031858;28;20089;-65
2023/10/15 10:03:25;;;;;;;26.30;3.13;;;19.20;90.30;;;;;;5029705;28;20133;-67
2023/10/15 10:06:11;;;;;;;28.17;3.90;;;19.20;90.10;;;;;;5058144;28;20072;-66
2023/10/15 10:09:21;;;;;;;23.27;3.30;;;19.40;91.10;;;;;;5033483;28;20142;-67
2023/10/15 10:12:07;;;;;;;22.80;3.42;;;19.50;91.10;;;;;;5030264;28;20066;-67
2023/10/15 10:15:10;;;;;;;20.10;3.25;;;19.50;88.60;;;;;;5025140;28;20045;-70
2023/10/15 10:17:36;;;;;;;;;;;19.60;89.50;;;;;;5032864;28;20494;-67
2023/10/15 10:20:10;;;;;;;20.10;2.72;;;19.50;89.50;;;;;;5062179;28;19924;-67
2023/10/15 10:22:37;;;;;;;14.18;3.00;;;19.50;91.10;;;;;;5045895;28;20088;-68
2023/10/15 10:25:03;;;;;;;11.25;2.30;;;19.60;91.00;;;;;;5046556;28;20037;-68
2023/10/15 10:27:40;;;;;;;12.98;2.53;;;19.50;91.00;;;;;;5030764;28;20045;-68
2023/10/15 10:30:27;;;;;;;21.85;2.50;;;19.40;91.00;;;;;;5019290;28;20045;-67
2023/10/15 10:32:53;;;;;;;10.75;2.30;;;;;;;;;;5035351;28;20394;-67
2023/10/15 10:35:23;;;;;;;9.15;2.35;;;19.10;89.80;;;;;;5034226;28;20088;-67
2023/10/15 10:38:05;;;;;;;9.07;1.98;;;19.20;91.00;;;;;;5035449;28;20132;-66
2023/10/15 10:40:49;;;;;;;9.77;1.70;;;19.20;91.00;;;;;;5051092;28;20395;-66
2023/10/15 10:43:19;;;;;;;9.95;1.80;;;19.30;91.00;;;;;;5049853;28;20045;-66
2023/10/15 10:45:58;;;;;;;8.48;1.70;;;19.30;90.40;;;;;;5056793;28;20049;-66
2023/10/15 10:48:25;;;;;;;6.40;1.20;;;19.40;89.70;;;;;;5033428;28;20045;-66
2023/10/15 10:51:11;;;;;;;11.55;1.40;;;19.30;90.90;;;;;;5033886;28;20111;-67
2023/10/15 10:54:10;;;;;;;5.53;1.60;;;19.40;90.90;;;;;;5020153;28;20045;-67
2023/10/15 10:56:41;;;;;;;6.07;1.83;;;19.30;90.90;;;;;;5019175;28;20061;-67
2023/10/15 10:59:11;;;;;;;9.20;1.70;;;19.50;90.90;;;;;;5023339;28;20057;-66
2023/10/15 11:01:39;;;;;;;7.55;1.33;;;19.50;90.90;;;;;;5035844;28;20116;-66
2023/10/15 11:04:08;;;;;;;5.15;1.35;;;19.40;90.80;;;;;;5014719;28;20207;-66
2023/10/15 11:06:36;;;;;;;7.32;1.50;;;19.60;89.00;;;;;;5025086;28;20061;-65
2023/10/15 11:09:24;;;;;;;3.90;1.30;;;19.60;90.70;;;;;;4983652;28;20056;-65
2023/10/15 11:11:55;;;;;;;7.43;1.35;;;19.90;90.60;;;;;;5030755;28;20432;-64
2023/10/15 11:14:29;;;;;;;8.77;1.73;;;19.70;90.30;;;;;;4999453;28;20053;-65
2023/10/15 11:16:55;;;;;;;3.53;1.00;;;19.70;90.30;;;;;;5023752;28;20044;-64
2023/10/15 11:19:24;;;;;;;5.70;1.20;;;19.70;90.20;;;;;;5007792;28;20072;-64
2023/10/15 11:21:51;;;;;;;3.78;1.25;;;19.60;90.10;;;;;;5035575;28;20044;-64
2023/10/15 11:24:18;;;;;;;5.88;1.50;;;19.60;90.00;;;;;;5014733;28;20051;-65
2023/10/15 11:26:44;;;;;;;5.07;1.20;;;19.60;89.80;;;;;;5031671;28;20406;-64
2023/10/15 11:29:13;;;;;;;6.85;1.42;;;19.50;85.50;;;;;;5017397;28;20061;-65
2023/10/15 11:31:44;;;;;;;3.50;1.25;;;19.50;89.40;;;;;;5018195;28;20058;-64
2023/10/15 11:34:14;;;;;;;3.75;1.20;;;19.40;89.40;;;;;;5032795;28;20099;-64
2023/10/15 11:36:43;;;;;;;6.07;2.03;;;19.50;89.40;;;;;;5044831;28;20057;-65
2023/10/15 11:39:17;;;;;;;6.30;1.60;;;19.50;89.00;;;;;;5047220;28;20041;-65
2023/10/15 11:41:50;;;;;;;7.03;1.98;;;19.40;88.80;;;;;;5052585;28;20057;-65
2023/10/15 11:44:17;;;;;;;6.38;1.50;;;19.50;88.50;;;;;;5051847;28;20430;-65
2023/10/15 11:46:46;;;;;;;5.30;1.40;;;19.50;88.60;;;;;;5047669;28;20107;-65
2023/10/15 11:49:12;;;;;;;5.70;1.30;;;19.50;88.40;;;;;;5027030;28;20487;-65
2023/10/15 11:51:39;;;;;;;6.57;1.88;;;19.50;88.30;;;;;;5048902;28;20095;-64
2023/10/15 11:54:09;;;;;;;5.97;1.48;;;;;;;;;;5032923;28;20068;-64
2023/10/15 11:56:38;;;;;;;5.75;1.55;;;19.50;85.40;;;;;;5050904;28;20048;-64
2023/10/15 11:59:03;;;;;;;5.78;1.38;;;19.50;87.80;;;;;;5033200;28;20056;-64
2023/10/15 12:01:29;;;;;;;5.53;1.50;;;19.50;86.90;;;;;;5051762;28;20055;-65
2023/10/15 12:03:56;;;;;;;6.47;1.60;;;19.30;87.90;;;;;;5051672;28;20041;-64
2023/10/15 12:06:22;;;;;;;4.40;1.30;;;19.30;85.70;;;;;;5032060;28;20175;-64
2023/10/15 12:08:48;;;;;;;6.15;1.50;;;19.60;88.40;;;;;;5031861;28;20053;-65
2023/10/15 12:11:18;;;;;;;4.53;1.58;;;20.00;88.20;;;;;;5033233;28;20057;-65
2023/10/15 12:13:47;;;;;;;7.00;1.60;;;21.00;87.00;;;;;;5031985;28;20094;-65
2023/10/15 12:16:14;;;;;;;7.00;1.75;;;22.10;83.40;;;;;;5032704;28;20461;-65
2023/10/15 12:18:40;;;;;;;5.63;1.48;;;22.50;84.20;;;;;;5040561;28;20511;-65
2023/10/15 12:21:06;;;;;;;4.43;1.27;;;23.20;83.20;;;;;;5032453;28;20045;-65
2023/10/15 12:23:32;;;;;;;6.32;1.83;;;;;;;;;;5050140;28;20103;-65
2023/10/15 12:26:00;;;;;;;5.45;1.55;;;24.10;80.90;;;;;;5052558;28;20402;-64
2023/10/15 12:28:27;;;;;;;7.40;1.88;;;24.40;79.70;;;;;;5039923;28;20048;-64
2023/10/15 12:30:54;;;;;;;7.07;1.67;;;24.30;77.00;;;;;;5045488;28;20062;-65
2023/10/15 12:33:21;;;;;;;4.65;1.67;;;23.50;78.80;;;;;;5032945;28;20517;-64
2023/10/15 12:35:50;;;;;;;4.63;1.60;;;23.00;79.30;;;;;;5031827;28;20042;-65
2023/10/15 12:38:20;;;;;;;3.75;1.50;;;;;;;;;;5033693;28;20521;-65
2023/10/15 12:40:46;;;;;;;5.28;1.67;;;22.10;81.00;;;;;;5032179;28;20060;-65
2023/10/15 12:43:15;;;;;;;6.72;1.50;;;;;;;;;;5033139;28;20037;-65
2023/10/15 12:45:45;;;;;;;4.50;1.42;;;21.30;83.00;;;;;;5042789;28;20045;-64
2023/10/15 12:48:11;;;;;;;5.72;1.73;;;21.30;83.40;;;;;;5031396;28;20053;-64
2023/10/15 12:50:37;;;;;;;8.13;1.65;;;21.20;83.50;;;;;;5046744;28;20060;-65
2023/10/15 12:53:03;;;;;;;5.50;1.42;;;20.90;82.60;;;;;;5038964;28;20040;-65
2023/10/15 12:55:29;;;;;;;4.00;1.40;;;20.90;83.90;;;;;;5034158;28;20087;-65
2023/10/15 12:57:57;;;;;;;4.53;1.45;;;20.90;84.00;;;;;;5048546;28;20045;-65
2023/10/15 13:00:26;;;;;;;4.38;1.40;;;20.90;84.30;;;;;;5036639;28;20116;-64
2023/10/15 13:02:53;;;;;;;6.05;1.50;;;21.10;84.20;;;;;;5051402;28;20449;-65
2023/10/15 13:05:23;;;;;;;7.28;1.60;;;21.00;82.80;;;;;;5051110;28;20092;-65
2023/10/15 13:07:51;;;;;;;4.97;1.30;;;20.70;84.20;;;;;;5032479;28;20060;-65
2023/10/15 13:10:18;;;;;;;6.22;1.73;;;20.50;84.50;;;;;;5040962;28;20049;-65
2023/10/15 13:12:47;;;;;;;5.00;1.50;;;20.30;80.70;;;;;;5047597;28;20200;-64
2023/10/15 13:15:19;;;;;;;5.40;1.42;;;20.10;84.80;;;;;;5045137;28;20049;-66
2023/10/15 13:17:45;;;;;;;7.35;1.40;;;20.00;84.90;;;;;;5042756;28;20045;-64
2023/10/15 13:20:11;;;;;;;3.67;1.30;;;19.70;85.30;;;;;;5030905;28;20052;-64
2023/10/15 13:22:41;;;;;;;4.65;1.45;;;19.60;85.80;;;;;;5050282;28;20105;-65
2023/10/15 13:25:08;;;;;;;4.43;1.20;;;19.60;86.70;;;;;;5047662;28;20098;-64
2023/10/15 13:27:34;;;;;;;5.70;1.40;;;19.60;87.80;;;;;;5043444;28;20433;-65
2023/10/15 13:30:01;;;;;;;5.60;1.40;;;19.70;84.90;;;;;;5043212;28;20509;-66
2023/10/15 13:32:27;;;;;;;5.78;1.85;;;19.50;87.50;;;;;;5044277;28;20510;-64
2023/10/15 13:34:53;;;;;;;5.70;1.30;;;;;;;;;;5050819;28;20149;-65
2023/10/15 13:37:19;;;;;;;4.30;1.40;;;19.30;87.80;;;;;;5038204;28;20045;-65
2023/10/15 13:39:49;;;;;;;3.22;1.20;;;;;;;;;;5031813;28;20048;-66
2023/10/15 13:42:16;;;;;;;4.18;1.13;;;19.10;84.70;;;;;;5030859;28;20114;-66
2023/10/15 13:44:42;;;;;;;4.43;1.00;;;19.20;88.40;;;;;;5033301;28;20056;-67